Юледур

Карта отелей и гостиниц, располагающихся рядом с аэропортом Юледур :

Юледур Марий Эл 56° 47' 47.8788" N, 49° 10' 19.1388" E
Код аэродрома ИКАО
ZEP9
Код аэродрома RU
ЗЕП9
Координаты
N56.79663° E049.17198°
Превышение над уровнем моря
182
Основная полоса
16/34
Курс магнитный
164,1/344,1
Длина основной ВПП
472
Ширина основной ВПП
18
Покрытие основной ВПП
Твёрдое (асфальт)
Освещение ВПП
Нет
Тип: 
Аэродром
Класс аэродрома: 
Принадлежность: 
ГА
Статус: 
Недействующий
Сайт: 
E-mail аэродрома: 
Страна: 
Россия
Регион: 
Марий Эл
Город: 
Дополнительная информация: 
Бывшая площадка АХР.

Найти трансфер

С помощью этой формы Вы можете найти трансфер из аэропорта Юледур в город, аэропорт или вокзал:

Карта места

Javascript is required to view this map.

Погода в аэропортах:

Авиационная погода в Нижнем Новгороде

Регион: 
Погода METAR: 
UWGG 170530Z 34006MPS 8000 -SN OVC014 M18/M21 Q1006 R36R/490140 NOSIG
Время наблюдения
2021-01-17T05:30:00Z
Температура C
-18.0
Точка росы
-21.0
Направление ветра
340
Скорость ветра (узлы)
12
Метео видимость
4.97
Явления погоды
-SN
Условия полета
MVFR
Аэропорт подробнее: 

Авиационная погода в Магнитогорске

Погода METAR: 
USCM 170530Z 21007MPS 9000 BLSN SCT020 M09/M14 Q1003 R18/390132 TEMPO 21017MPS RMK QFE715
Время наблюдения
2021-01-17T05:30:00Z
Температура C
-9.0
Точка росы
-14.0
Направление ветра
210
Скорость ветра (узлы)
14
Метео видимость
5.59
Явления погоды
BLSN
Условия полета
VFR
Аэропорт подробнее: 

Авиационная погода в Астрахани

Регион: 
Погода METAR: 
URWA 170530Z 07003MPS 3300 BR OVC003 M04/M05 Q1014 R27/010070 NOSIG RMK OBST OBSC QFE762/1017
Время наблюдения
2021-01-17T05:30:00Z
Температура C
-4.0
Точка росы
-5.0
Направление ветра
70
Скорость ветра (узлы)
6
Метео видимость
2.05
Явления погоды
BR
Условия полета
LIFR
Аэропорт подробнее: 

Авиационная погода в аэропорту Бесовец

Регион: 
Погода METAR: 
ULPB 170530Z 24002MPS 5000 -SN BKN005 OVC030 M17/M18 Q1012 RESN NOSIG RMK QBB170 QFE755/1007
Время наблюдения
2021-01-17T05:30:00Z
Температура C
-17.0
Точка росы
-18.0
Направление ветра
240
Скорость ветра (узлы)
4
Метео видимость
3.11
Явления погоды
-SN
Условия полета
IFR
Аэропорт подробнее: